sensor_id;sensor_type;location;lat;lon;timestamp;pressure;altitude;pressure_sealevel;temperature;humidity
68107;BME280;54892;47.488;19.026;2023-01-01T00:02:50;101036.34;;;4.81;100.00
68107;BME280;54892;47.488;19.026;2023-01-01T00:05:54;101027.81;;;4.72;99.61
68107;BME280;54892;47.488;19.026;2023-01-01T00:08:58;101029.00;;;4.69;99.71
68107;BME280;54892;47.488;19.026;2023-01-01T00:12:20;101033.81;;;4.66;100.00
68107;BME280;54892;47.488;19.026;2023-01-01T00:15:23;101043.53;;;4.72;100.00
68107;BME280;54892;47.488;19.026;2023-01-01T00:18:28;101039.12;;;4.79;99.69
68107;BME280;54892;47.488;19.026;2023-01-01T00:21:32;101041.53;;;4.74;100.00
68107;BME280;54892;47.488;19.026;2023-01-01T00:24:36;101034.09;;;4.78;100.00
68107;BME280;54892;47.488;19.026;2023-01-01T00:27:40;101030.25;;;4.73;99.89
68107;BME280;54892;47.488;19.026;2023-01-01T00:30:43;101036.22;;;4.67;99.95
68107;BME280;54892;47.488;19.026;2023-01-01T00:33:51;101030.63;;;4.70;99.82
68107;BME280;54892;47.488;19.026;2023-01-01T00:36:55;101030.81;;;4.69;99.86
68107;BME280;54892;47.488;19.026;2023-01-01T00:39:59;101026.78;;;4.66;99.96
68107;BME280;54892;47.488;19.026;2023-01-01T00:43:03;101026.94;;;4.65;100.00
68107;BME280;54892;47.488;19.026;2023-01-01T00:46:08;101042.59;;;4.58;100.00
68107;BME280;54892;47.488;19.026;2023-01-01T00:49:13;101035.75;;;4.57;100.00
68107;BME280;54892;47.488;19.026;2023-01-01T00:52:17;101030.41;;;4.65;100.00
68107;BME280;54892;47.488;19.026;2023-01-01T00:55:20;101044.69;;;4.69;99.73
68107;BME280;54892;47.488;19.026;2023-01-01T00:58:24;101027.91;;;4.57;100.00
68107;BME280;54892;47.488;19.026;2023-01-01T01:01:28;101031.75;;;4.61;100.00
68107;BME280;54892;47.488;19.026;2023-01-01T01:04:32;101033.19;;;4.64;100.00
68107;BME280;54892;47.488;19.026;2023-01-01T01:07:37;101038.25;;;4.65;100.00
68107;BME280;54892;47.488;19.026;2023-01-01T01:10:41;101030.25;;;4.73;100.00
68107;BME280;54892;47.488;19.026;2023-01-01T01:13:46;101029.00;;;4.98;100.00
68107;BME280;54892;47.488;19.026;2023-01-01T01:16:49;101035.94;;;4.84;100.00
68107;BME280;54892;47.488;19.026;2023-01-01T01:19:54;101035.66;;;4.72;100.00
68107;BME280;54892;47.488;19.026;2023-01-01T01:22:58;101027.56;;;4.67;100.00
68107;BME280;54892;47.488;19.026;2023-01-01T01:26:08;101036.56;;;4.57;100.00
68107;BME280;54892;47.488;19.026;2023-01-01T01:29:13;101033.75;;;4.59;100.00
68107;BME280;54892;47.488;19.026;2023-01-01T01:32:17;101041.97;;;4.56;100.00
68107;BME280;54892;47.488;19.026;2023-01-01T01:35:22;101042.53;;;4.51;100.00
68107;BME280;54892;47.488;19.026;2023-01-01T01:38:26;101045.78;;;4.53;100.00
68107;BME280;54892;47.488;19.026;2023-01-01T01:41:30;101037.37;;;4.58;100.00
68107;BME280;54892;47.488;19.026;2023-01-01T01:44:53;101025.22;;;4.50;100.00
68107;BME280;54892;47.488;19.026;2023-01-01T01:47:57;101033.28;;;4.49;100.00
68107;BME280;54892;47.488;19.026;2023-01-01T01:51:03;101036.87;;;4.48;100.00
68107;BME280;54892;47.488;19.026;2023-01-01T01:54:09;101030.22;;;4.45;100.00
68107;BME280;54892;47.488;19.026;2023-01-01T01:57:15;101021.78;;;4.43;100.00
68107;BME280;54892;47.488;19.026;2023-01-01T02:00:19;101028.00;;;4.42;100.00
68107;BME280;54892;47.488;19.026;2023-01-01T02:03:26;101037.47;;;4.43;100.00
68107;BME280;54892;47.488;19.026;2023-01-01T02:06:32;101039.44;;;4.41;100.00
68107;BME280;54892;47.488;19.026;2023-01-01T02:09:37;101035.22;;;4.40;100.00
68107;BME280;54892;47.488;19.026;2023-01-01T02:12:41;101042.22;;;4.39;100.00
68107;BME280;54892;47.488;19.026;2023-01-01T02:15:51;101033.59;;;4.39;100.00
68107;BME280;54892;47.488;19.026;2023-01-01T02:18:58;101036.78;;;4.34;100.00
68107;BME280;54892;47.488;19.026;2023-01-01T02:22:13;101039.75;;;4.31;100.00
68107;BME280;54892;47.488;19.026;2023-01-01T02:25:24;101038.16;;;4.30;100.00
68107;BME280;54892;47.488;19.026;2023-01-01T02:28:39;101037.16;;;4.31;100.00
68107;BME280;54892;47.488;19.026;2023-01-01T02:31:47;101037.88;;;4.25;100.00
68107;BME280;54892;47.488;19.026;2023-01-01T02:34:56;101056.19;;;4.25;100.00
68107;BME280;54892;47.488;19.026;2023-01-01T02:38:05;101051.94;;;4.24;100.00
68107;BME280;54892;47.488;19.026;2023-01-01T02:41:13;101051.84;;;4.32;100.00
68107;BME280;54892;47.488;19.026;2023-01-01T02:44:21;101057.22;;;4.31;100.00
68107;BME280;54892;47.488;19.026;2023-01-01T02:47:25;101051.16;;;4.23;100.00
68107;BME280;54892;47.488;19.026;2023-01-01T02:50:28;101053.69;;;4.17;100.00
68107;BME280;54892;47.488;19.026;2023-01-01T02:53:35;101046.66;;;4.17;100.00
68107;BME280;54892;47.488;19.026;2023-01-01T02:56:42;101052.25;;;4.14;100.00
68107;BME280;54892;47.488;19.026;2023-01-01T02:59:59;101051.09;;;4.17;100.00
68107;BME280;54892;47.488;19.026;2023-01-01T03:03:27;101050.25;;;4.16;100.00
68107;BME280;54892;47.488;19.026;2023-01-01T03:06:39;101035.78;;;4.14;100.00
68107;BME280;54892;47.488;19.026;2023-01-01T03:09:52;101040.56;;;4.10;100.00
68107;BME280;54892;47.488;19.026;2023-01-01T03:13:02;101038.50;;;4.05;100.00
68107;BME280;54892;47.488;19.026;2023-01-01T03:16:15;101041.72;;;4.07;100.00
68107;BME280;54892;47.488;19.026;2023-01-01T03:19:22;101034.88;;;4.06;100.00
68107;BME280;54892;47.488;19.026;2023-01-01T03:22:29;101038.25;;;4.00;100.00
68107;BME280;54892;47.488;19.026;2023-01-01T03:25:37;101035.59;;;3.93;100.00
68107;BME280;54892;47.488;19.026;2023-01-01T03:28:45;101042.22;;;3.96;100.00
68107;BME280;54892;47.488;19.026;2023-01-01T03:31:54;101050.75;;;4.05;100.00
68107;BME280;54892;47.488;19.026;2023-01-01T03:34:59;101042.66;;;4.00;100.00
68107;BME280;54892;47.488;19.026;2023-01-01T03:38:05;101044.75;;;4.04;100.00
68107;BME280;54892;47.488;19.026;2023-01-01T03:41:13;101021.09;;;4.12;100.00
68107;BME280;54892;47.488;19.026;2023-01-01T03:44:20;101041.72;;;4.07;100.00
68107;BME280;54892;47.488;19.026;2023-01-01T03:47:27;101035.66;;;4.00;100.00
68107;BME280;54892;47.488;19.026;2023-01-01T03:50:39;101036.22;;;3.95;100.00
68107;BME280;54892;47.488;19.026;2023-01-01T03:53:44;101032.47;;;4.05;100.00
68107;BME280;54892;47.488;19.026;2023-01-01T03:56:51;101030.66;;;4.05;100.00
68107;BME280;54892;47.488;19.026;2023-01-01T04:00:03;101029.31;;;4.09;100.00
68107;BME280;54892;47.488;19.026;2023-01-01T04:03:15;101025.12;;;4.15;100.00
68107;BME280;54892;47.488;19.026;2023-01-01T04:06:20;101028.19;;;4.19;100.00
68107;BME280;54892;47.488;19.026;2023-01-01T04:09:28;101033.37;;;4.12;100.00
68107;BME280;54892;47.488;19.026;2023-01-01T04:12:33;101030.97;;;4.17;100.00
68107;BME280;54892;47.488;19.026;2023-01-01T04:15:36;101029.81;;;4.20;100.00
68107;BME280;54892;47.488;19.026;2023-01-01T04:18:41;101024.19;;;4.23;100.00
68107;BME280;54892;47.488;19.026;2023-01-01T04:21:45;101032.59;;;4.18;100.00
68107;BME280;54892;47.488;19.026;2023-01-01T04:24:48;101041.19;;;4.34;100.00
68107;BME280;54892;47.488;19.026;2023-01-01T04:27:53;101035.97;;;4.34;100.00
68107;BME280;54892;47.488;19.026;2023-01-01T04:31:00;101034.34;;;4.33;100.00
68107;BME280;54892;47.488;19.026;2023-01-01T04:34:05;101032.28;;;4.28;100.00
68107;BME280;54892;47.488;19.026;2023-01-01T04:37:08;101034.09;;;4.28;100.00
68107;BME280;54892;47.488;19.026;2023-01-01T04:40:14;101042.75;;;4.28;100.00
68107;BME280;54892;47.488;19.026;2023-01-01T04:43:18;101021.91;;;4.35;100.00
68107;BME280;54892;47.488;19.026;2023-01-01T04:46:22;101023.87;;;4.33;100.00
68107;BME280;54892;47.488;19.026;2023-01-01T04:49:27;101030.31;;;4.30;100.00
68107;BME280;54892;47.488;19.026;2023-01-01T04:52:31;101031.72;;;4.33;100.00
68107;BME280;54892;47.488;19.026;2023-01-01T04:55:35;101029.87;;;4.26;100.00
68107;BME280;54892;47.488;19.026;2023-01-01T04:58:39;101045.56;;;4.26;100.00
68107;BME280;54892;47.488;19.026;2023-01-01T05:01:43;101051.50;;;4.20;100.00
68107;BME280;54892;47.488;19.026;2023-01-01T05:04:48;101049.69;;;4.21;100.00
68107;BME280;54892;47.488;19.026;2023-01-01T05:07:51;101046.97;;;4.29;100.00
68107;BME280;54892;47.488;19.026;2023-01-01T05:10:59;101047.97;;;4.28;100.00
68107;BME280;54892;47.488;19.026;2023-01-01T05:14:03;101040.75;;;4.30;100.00
68107;BME280;54892;47.488;19.026;2023-01-01T05:17:07;101050.00;;;4.33;100.00
68107;BME280;54892;47.488;19.026;2023-01-01T05:20:12;101049.22;;;4.32;100.00
68107;BME280;54892;47.488;19.026;2023-01-01T05:23:15;101041.38;;;4.32;100.00
68107;BME280;54892;47.488;19.026;2023-01-01T05:26:20;101047.59;;;4.31;100.00
68107;BME280;54892;47.488;19.026;2023-01-01T05:29:25;101042.38;;;4.31;100.00
68107;BME280;54892;47.488;19.026;2023-01-01T05:32:29;101042.38;;;4.31;100.00
68107;BME280;54892;47.488;19.026;2023-01-01T05:35:34;101042.75;;;4.28;100.00
68107;BME280;54892;47.488;19.026;2023-01-01T05:38:37;101055.56;;;4.23;100.00
68107;BME280;54892;47.488;19.026;2023-01-01T05:41:41;101058.78;;;4.25;100.00
68107;BME280;54892;47.488;19.026;2023-01-01T05:44:45;101047.91;;;4.21;100.00
68107;BME280;54892;47.488;19.026;2023-01-01T05:47:49;101057.37;;;4.22;100.00
68107;BME280;54892;47.488;19.026;2023-01-01T05:50:59;101055.13;;;4.19;100.00
68107;BME280;54892;47.488;19.026;2023-01-01T05:54:04;101058.09;;;4.16;100.00
68107;BME280;54892;47.488;19.026;2023-01-01T05:57:08;101055.06;;;4.12;100.00
68107;BME280;54892;47.488;19.026;2023-01-01T06:00:13;101066.12;;;4.15;100.00
68107;BME280;54892;47.488;19.026;2023-01-01T06:03:17;101085.00;;;4.10;100.00
68107;BME280;54892;47.488;19.026;2023-01-01T06:06:23;101077.37;;;4.15;100.00
68107;BME280;54892;47.488;19.026;2023-01-01T06:09:27;101071.44;;;4.21;100.00
68107;BME280;54892;47.488;19.026;2023-01-01T06:12:31;101077.28;;;4.23;100.00
68107;BME280;54892;47.488;19.026;2023-01-01T06:15:35;101078.91;;;4.24;100.00
68107;BME280;54892;47.488;19.026;2023-01-01T06:18:39;101097.75;;;4.20;100.00
68107;BME280;54892;47.488;19.026;2023-01-01T06:21:44;101105.97;;;4.17;100.00
68107;BME280;54892;47.488;19.026;2023-01-01T06:24:47;101116.97;;;4.12;100.00
68107;BME280;54892;47.488;19.026;2023-01-01T06:27:51;101120.75;;;4.09;100.00
68107;BME280;54892;47.488;19.026;2023-01-01T06:30:58;101125.72;;;4.04;100.00
68107;BME280;54892;47.488;19.026;2023-01-01T06:34:02;101126.59;;;4.11;100.00
68107;BME280;54892;47.488;19.026;2023-01-01T06:37:07;101127.03;;;4.15;100.00
68107;BME280;54892;47.488;19.026;2023-01-01T06:40:11;101128.84;;;4.15;100.00
68107;BME280;54892;47.488;19.026;2023-01-01T06:43:16;101129.47;;;4.17;100.00
68107;BME280;54892;47.488;19.026;2023-01-01T06:46:21;101130.72;;;4.21;100.00
68107;BME280;54892;47.488;19.026;2023-01-01T06:49:24;101140.44;;;4.27;100.00
68107;BME280;54892;47.488;19.026;2023-01-01T06:52:29;101140.44;;;4.27;100.00
68107;BME280;54892;47.488;19.026;2023-01-01T06:55:33;101142.69;;;4.30;100.00
68107;BME280;54892;47.488;19.026;2023-01-01T06:58:36;101144.09;;;4.33;100.00
68107;BME280;54892;47.488;19.026;2023-01-01T07:01:40;101148.41;;;4.40;100.00
68107;BME280;54892;47.488;19.026;2023-01-01T07:04:44;101148.69;;;4.46;100.00
68107;BME280;54892;47.488;19.026;2023-01-01T07:07:50;101132.37;;;4.44;100.00
68107;BME280;54892;47.488;19.026;2023-01-01T07:10:54;101128.37;;;4.48;100.00
68107;BME280;54892;47.488;19.026;2023-01-01T07:13:58;101129.38;;;4.47;100.00
68107;BME280;54892;47.488;19.026;2023-01-01T07:17:02;101128.81;;;4.51;100.00
68107;BME280;54892;47.488;19.026;2023-01-01T07:20:06;101127.00;;;4.52;100.00
68107;BME280;54892;47.488;19.026;2023-01-01T07:23:12;101137.66;;;4.50;100.00
68107;BME280;54892;47.488;19.026;2023-01-01T07:26:15;101134.69;;;4.53;100.00
68107;BME280;54892;47.488;19.026;2023-01-01T07:29:19;101130.62;;;4.51;100.00
68107;BME280;54892;47.488;19.026;2023-01-01T07:32:22;101128.63;;;4.53;100.00
68107;BME280;54892;47.488;19.026;2023-01-01T07:35:26;101128.78;;;4.66;100.00
68107;BME280;54892;47.488;19.026;2023-01-01T07:38:31;101125.31;;;4.44;100.00
68107;BME280;54892;47.488;19.026;2023-01-01T07:41:35;101123.03;;;4.56;100.00
68107;BME280;54892;47.488;19.026;2023-01-01T07:44:38;101125.66;;;4.34;100.00
68107;BME280;54892;47.488;19.026;2023-01-01T07:47:42;101132.16;;;4.45;100.00
68107;BME280;54892;47.488;19.026;2023-01-01T07:50:46;101139.53;;;4.56;100.00
68107;BME280;54892;47.488;19.026;2023-01-01T07:53:51;101143.22;;;4.62;100.00
68107;BME280;54892;47.488;19.026;2023-01-01T07:56:55;101146.88;;;4.68;100.00
68107;BME280;54892;47.488;19.026;2023-01-01T07:59:58;101151.16;;;4.76;100.00
68107;BME280;54892;47.488;19.026;2023-01-01T08:03:02;101158.59;;;4.72;100.00
68107;BME280;54892;47.488;19.026;2023-01-01T08:06:10;101166.44;;;4.72;100.00
68107;BME280;54892;47.488;19.026;2023-01-01T08:09:15;101167.81;;;4.90;100.00
68107;BME280;54892;47.488;19.026;2023-01-01T08:12:18;101173.56;;;4.85;100.00
68107;BME280;54892;47.488;19.026;2023-01-01T08:15:22;101176.81;;;4.87;100.00
68107;BME280;54892;47.488;19.026;2023-01-01T08:18:26;101182.78;;;5.02;100.00
68107;BME280;54892;47.488;19.026;2023-01-01T08:21:29;101181.16;;;5.01;100.00
68107;BME280;54892;47.488;19.026;2023-01-01T08:24:34;101192.25;;;5.03;100.00
68107;BME280;54892;47.488;19.026;2023-01-01T08:27:38;101200.25;;;4.95;100.00
68107;BME280;54892;47.488;19.026;2023-01-01T08:30:41;101200.06;;;4.97;100.00
68107;BME280;54892;47.488;19.026;2023-01-01T08:33:45;101208.31;;;5.00;100.00
68107;BME280;54892;47.488;19.026;2023-01-01T08:36:49;101201.00;;;4.89;100.00
68107;BME280;54892;47.488;19.026;2023-01-01T08:39:54;101196.06;;;5.01;100.00
68107;BME280;54892;47.488;19.026;2023-01-01T08:42:58;101202.22;;;5.15;100.00
68107;BME280;54892;47.488;19.026;2023-01-01T08:46:02;101203.50;;;5.26;100.00
68107;BME280;54892;47.488;19.026;2023-01-01T08:49:06;101206.97;;;5.05;100.00
68107;BME280;54892;47.488;19.026;2023-01-01T08:52:10;101199.47;;;5.01;100.00
68107;BME280;54892;47.488;19.026;2023-01-01T08:55:15;101199.13;;;5.05;100.00
68107;BME280;54892;47.488;19.026;2023-01-01T08:58:18;101184.72;;;5.15;100.00
68107;BME280;54892;47.488;19.026;2023-01-01T09:01:23;101196.16;;;5.36;100.00
68107;BME280;54892;47.488;19.026;2023-01-01T09:04:28;101205.44;;;5.39;100.00
68107;BME280;54892;47.488;19.026;2023-01-01T09:07:32;101196.69;;;5.31;100.00
68107;BME280;54892;47.488;19.026;2023-01-01T09:10:37;101194.19;;;5.45;100.00
68107;BME280;54892;47.488;19.026;2023-01-01T09:13:41;101189.22;;;5.57;100.00
68107;BME280;54892;47.488;19.026;2023-01-01T09:16:45;101190.91;;;5.71;100.00
68107;BME280;54892;47.488;19.026;2023-01-01T09:19:49;101200.97;;;5.68;100.00
68107;BME280;54892;47.488;19.026;2023-01-01T09:22:52;101199.41;;;5.73;100.00
68107;BME280;54892;47.488;19.026;2023-01-01T09:26:02;101208.09;;;5.74;100.00
68107;BME280;54892;47.488;19.026;2023-01-01T09:29:06;101205.44;;;5.67;100.00
68107;BME280;54892;47.488;19.026;2023-01-01T09:32:09;101203.34;;;5.62;100.00
68107;BME280;54892;47.488;19.026;2023-01-01T09:35:13;101203.19;;;5.64;100.00
68107;BME280;54892;47.488;19.026;2023-01-01T09:38:16;101207.19;;;5.60;100.00
68107;BME280;54892;47.488;19.026;2023-01-01T09:41:26;101214.28;;;5.38;100.00
68107;BME280;54892;47.488;19.026;2023-01-01T09:44:49;101207.03;;;5.40;100.00
68107;BME280;54892;47.488;19.026;2023-01-01T09:47:57;101213.28;;;5.39;100.00
68107;BME280;54892;47.488;19.026;2023-01-01T09:51:04;101196.63;;;5.46;100.00
68107;BME280;54892;47.488;19.026;2023-01-01T09:54:12;101197.28;;;5.55;100.00
68107;BME280;54892;47.488;19.026;2023-01-01T09:57:25;101195.25;;;5.51;100.00
68107;BME280;54892;47.488;19.026;2023-01-01T10:00:32;101194.41;;;5.50;100.00
68107;BME280;54892;47.488;19.026;2023-01-01T10:03:38;101200.03;;;5.47;100.00
68107;BME280;54892;47.488;19.026;2023-01-01T10:06:53;101195.78;;;5.46;100.00
68107;BME280;54892;47.488;19.026;2023-01-01T10:10:03;101204.13;;;5.56;100.00
68107;BME280;54892;47.488;19.026;2023-01-01T10:13:18;101199.19;;;5.68;100.00
68107;BME280;54892;47.488;19.026;2023-01-01T10:16:30;101207.22;;;5.67;100.00
68107;BME280;54892;47.488;19.026;2023-01-01T10:19:40;101208.00;;;5.60;100.00
68107;BME280;54892;47.488;19.026;2023-01-01T10:22:47;101200.28;;;5.52;100.00
68107;BME280;54892;47.488;19.026;2023-01-01T10:25:56;101192.00;;;5.48;100.00
68107;BME280;54892;47.488;19.026;2023-01-01T10:29:05;101183.00;;;5.58;100.00
68107;BME280;54892;47.488;19.026;2023-01-01T10:32:18;101186.47;;;5.65;100.00
68107;BME280;54892;47.488;19.026;2023-01-01T10:35:23;101188.50;;;5.70;100.00
68107;BME280;54892;47.488;19.026;2023-01-01T10:38:34;101189.13;;;5.72;100.00
68107;BME280;54892;47.488;19.026;2023-01-01T10:41:39;101187.34;;;5.79;100.00
68107;BME280;54892;47.488;19.026;2023-01-01T10:44:44;101186.91;;;6.04;100.00
68107;BME280;54892;47.488;19.026;2023-01-01T10:48:08;101180.47;;;5.78;100.00
68107;BME280;54892;47.488;19.026;2023-01-01T10:51:14;101170.09;;;5.91;100.00
68107;BME280;54892;47.488;19.026;2023-01-01T10:54:31;101171.56;;;6.01;100.00
68107;BME280;54892;47.488;19.026;2023-01-01T10:57:36;101171.41;;;6.16;100.00
68107;BME280;54892;47.488;19.026;2023-01-01T11:00:56;101176.47;;;6.17;100.00
68107;BME280;54892;47.488;19.026;2023-01-01T11:04:08;101167.97;;;6.15;100.00
68107;BME280;54892;47.488;19.026;2023-01-01T11:07:27;101159.91;;;6.17;100.00
68107;BME280;54892;47.488;19.026;2023-01-01T11:10:31;101143.38;;;6.16;100.00
68107;BME280;54892;47.488;19.026;2023-01-01T11:13:35;101138.78;;;6.32;100.00
68107;BME280;54892;47.488;19.026;2023-01-01T11:16:40;101135.34;;;6.31;100.00
68107;BME280;54892;47.488;19.026;2023-01-01T11:19:48;101121.03;;;6.20;100.00
68107;BME280;54892;47.488;19.026;2023-01-01T11:22:54;101103.47;;;6.28;100.00
68107;BME280;54892;47.488;19.026;2023-01-01T11:26:03;101108.31;;;6.31;100.00
68107;BME280;54892;47.488;19.026;2023-01-01T11:29:19;101111.97;;;6.36;100.00
68107;BME280;54892;47.488;19.026;2023-01-01T11:32:25;101112.34;;;6.33;100.00
68107;BME280;54892;47.488;19.026;2023-01-01T11:35:36;101114.59;;;6.36;100.00
68107;BME280;54892;47.488;19.026;2023-01-01T11:38:41;101118.44;;;6.54;100.00
68107;BME280;54892;47.488;19.026;2023-01-01T11:41:46;101124.91;;;6.58;100.00
68107;BME280;54892;47.488;19.026;2023-01-01T11:44:52;101122.09;;;6.66;99.56
68107;BME280;54892;47.488;19.026;2023-01-01T11:48:00;101128.56;;;6.64;100.00
68107;BME280;54892;47.488;19.026;2023-01-01T11:51:06;101117.28;;;6.77;99.50
68107;BME280;54892;47.488;19.026;2023-01-01T11:54:24;101112.59;;;6.79;99.04
68107;BME280;54892;47.488;19.026;2023-01-01T11:57:31;101106.78;;;6.83;99.25
68107;BME280;54892;47.488;19.026;2023-01-01T12:00:35;101106.97;;;6.75;99.60
68107;BME280;54892;47.488;19.026;2023-01-01T12:03:43;101102.53;;;6.69;99.96
68107;BME280;54892;47.488;19.026;2023-01-01T12:06:52;101092.62;;;6.71;99.93
68107;BME280;54892;47.488;19.026;2023-01-01T12:10:02;101093.44;;;6.72;100.00
68107;BME280;54892;47.488;19.026;2023-01-01T12:13:14;101091.81;;;6.77;99.99
68107;BME280;54892;47.488;19.026;2023-01-01T12:16:22;101094.44;;;6.77;99.84
68107;BME280;54892;47.488;19.026;2023-01-01T12:19:32;101082.13;;;6.71;99.90
68107;BME280;54892;47.488;19.026;2023-01-01T12:22:38;101091.81;;;6.70;100.00
68107;BME280;54892;47.488;19.026;2023-01-01T12:25:45;101088.19;;;6.65;100.00
68107;BME280;54892;47.488;19.026;2023-01-01T12:29:07;101092.03;;;6.76;100.00
68107;BME280;54892;47.488;19.026;2023-01-01T12:32:18;101087.19;;;6.79;100.00
68107;BME280;54892;47.488;19.026;2023-01-01T12:35:41;101071.44;;;6.79;100.00
68107;BME280;54892;47.488;19.026;2023-01-01T12:42:37;101058.53;;;6.91;100.00
68107;BME280;54892;47.488;19.026;2023-01-01T12:45:58;101070.00;;;6.97;100.00
68107;BME280;54892;47.488;19.026;2023-01-01T12:49:29;101066.38;;;6.98;100.00
68107;BME280;54892;47.488;19.026;2023-01-01T12:52:48;101066.56;;;7.03;99.77
68107;BME280;54892;47.488;19.026;2023-01-01T12:56:04;101067.37;;;7.04;100.00
68107;BME280;54892;47.488;19.026;2023-01-01T12:59:14;101075.25;;;7.04;99.95
68107;BME280;54892;47.488;19.026;2023-01-01T13:02:22;101079.28;;;7.06;99.82
68107;BME280;54892;47.488;19.026;2023-01-01T13:05:37;101079.25;;;7.20;99.03
68107;BME280;54892;47.488;19.026;2023-01-01T13:08:46;101083.31;;;7.22;99.22
68107;BME280;54892;47.488;19.026;2023-01-01T13:11:55;101071.59;;;7.18;99.28
68107;BME280;54892;47.488;19.026;2023-01-01T13:18:48;101090.75;;;7.25;98.76
68107;BME280;54892;47.488;19.026;2023-01-01T13:21:51;101090.16;;;7.10;99.40
68107;BME280;54892;47.488;19.026;2023-01-01T13:25:18;101091.37;;;7.14;99.39
68107;BME280;54892;47.488;19.026;2023-01-01T13:28:22;101093.03;;;6.88;100.00
68107;BME280;54892;47.488;19.026;2023-01-01T13:32:03;101102.72;;;6.88;100.00
68107;BME280;54892;47.488;19.026;2023-01-01T13:35:15;101095.66;;;6.95;100.00
68107;BME280;54892;47.488;19.026;2023-01-01T13:38:45;101106.34;;;6.86;100.00
68107;BME280;54892;47.488;19.026;2023-01-01T13:41:50;101105.94;;;6.90;100.00
68107;BME280;54892;47.488;19.026;2023-01-01T13:44:54;101102.72;;;6.88;100.00
68107;BME280;54892;47.488;19.026;2023-01-01T13:48:10;101114.03;;;6.88;100.00
68107;BME280;54892;47.488;19.026;2023-01-01T13:51:29;101116.44;;;6.76;100.00
68107;BME280;54892;47.488;19.026;2023-01-01T13:55:27;101114.22;;;6.66;100.00
68107;BME280;54892;47.488;19.026;2023-01-01T13:59:09;101111.59;;;6.66;100.00
68107;BME280;54892;47.488;19.026;2023-01-01T14:02:22;101116.44;;;6.69;100.00
68107;BME280;54892;47.488;19.026;2023-01-01T14:05:30;101124.94;;;6.65;100.00
68107;BME280;54892;47.488;19.026;2023-01-01T14:11:45;101127.72;;;6.57;100.00
68107;BME280;54892;47.488;19.026;2023-01-01T14:14:49;101124.94;;;6.65;100.00
68107;BME280;54892;47.488;19.026;2023-01-01T14:17:54;101129.34;;;6.71;100.00
68107;BME280;54892;47.488;19.026;2023-01-01T14:20:59;101119.91;;;6.77;100.00
68107;BME280;54892;47.488;19.026;2023-01-01T14:24:05;101130.19;;;6.78;100.00
68107;BME280;54892;47.488;19.026;2023-01-01T14:27:15;101121.69;;;6.76;100.00
68107;BME280;54892;47.488;19.026;2023-01-01T14:30:23;101124.09;;;6.78;100.00
68107;BME280;54892;47.488;19.026;2023-01-01T14:33:28;101124.72;;;6.73;100.00
68107;BME280;54892;47.488;19.026;2023-01-01T14:36:32;101117.44;;;6.75;100.00
68107;BME280;54892;47.488;19.026;2023-01-01T14:39:36;101125.31;;;6.75;100.00
68107;BME280;54892;47.488;19.026;2023-01-01T14:42:40;101139.25;;;6.76;100.00
68107;BME280;54892;47.488;19.026;2023-01-01T14:45:44;101145.31;;;6.76;100.00
68107;BME280;54892;47.488;19.026;2023-01-01T14:48:51;101138.44;;;6.75;100.00
68107;BME280;54892;47.488;19.026;2023-01-01T14:51:56;101124.09;;;6.71;100.00
68107;BME280;54892;47.488;19.026;2023-01-01T14:55:03;101132.59;;;6.66;100.00
68107;BME280;54892;47.488;19.026;2023-01-01T14:58:11;101140.28;;;6.75;100.00
68107;BME280;54892;47.488;19.026;2023-01-01T15:01:21;101133.59;;;6.72;100.00
68107;BME280;54892;47.488;19.026;2023-01-01T15:04:25;101135.41;;;6.72;100.00
68107;BME280;54892;47.488;19.026;2023-01-01T15:07:30;101139.84;;;6.78;100.00
68107;BME280;54892;47.488;19.026;2023-01-01T15:10:35;101134.19;;;6.74;100.00
68107;BME280;54892;47.488;19.026;2023-01-01T15:13:39;101143.28;;;6.78;100.00
68107;BME280;54892;47.488;19.026;2023-01-01T15:16:58;101135.81;;;6.75;100.00
68107;BME280;54892;47.488;19.026;2023-01-01T15:20:05;101146.31;;;6.82;100.00
68107;BME280;54892;47.488;19.026;2023-01-01T15:23:22;101149.56;;;6.91;100.00
68107;BME280;54892;47.488;19.026;2023-01-01T15:26:32;101144.09;;;6.85;100.00
68107;BME280;54892;47.488;19.026;2023-01-01T15:29:44;101145.53;;;6.88;100.00
68107;BME280;54892;47.488;19.026;2023-01-01T15:32:51;101152.37;;;6.96;100.00
68107;BME280;54892;47.488;19.026;2023-01-01T15:35:58;101151.78;;;7.00;100.00
68107;BME280;54892;47.488;19.026;2023-01-01T15:39:08;101153.59;;;7.00;100.00
68107;BME280;54892;47.488;19.026;2023-01-01T15:42:30;101158.44;;;7.03;100.00
68107;BME280;54892;47.488;19.026;2023-01-01T15:45:36;101166.31;;;7.10;100.00
68107;BME280;54892;47.488;19.026;2023-01-01T15:48:48;101168.53;;;7.13;100.00
68107;BME280;54892;47.488;19.026;2023-01-01T15:51:53;101154.22;;;7.15;100.00
68107;BME280;54892;47.488;19.026;2023-01-01T15:54:58;101162.66;;;7.18;100.00
68107;BME280;54892;47.488;19.026;2023-01-01T15:58:02;101172.97;;;7.26;100.00
68107;BME280;54892;47.488;19.026;2023-01-01T16:01:09;101175.59;;;7.26;100.00
68107;BME280;54892;47.488;19.026;2023-01-01T16:04:17;101172.97;;;7.26;100.00
68107;BME280;54892;47.488;19.026;2023-01-01T16:07:25;101182.06;;;7.30;100.00
68107;BME280;54892;47.488;19.026;2023-01-01T16:10:29;101181.06;;;7.31;100.00
68107;BME280;54892;47.488;19.026;2023-01-01T16:13:34;101173.97;;;7.31;100.00
68107;BME280;54892;47.488;19.026;2023-01-01T16:16:38;101179.44;;;7.30;100.00
68107;BME280;54892;47.488;19.026;2023-01-01T16:19:47;101178.00;;;7.34;100.00